Warren, Arkansas
Current Conditions -  °F | °C
As of 9:53 PM on Wednesday 28 Jan 2015 (Local Time) from KLLQ Reporting Station
Clear Clear  
Wind Chill: 60°   Ceiling: Unl
Heat Index: 60°   Visibility: 10mi
Dew Point: 40°   Wind: 12mph
Humidity: 47%   Direction: 190°S
Pressure: 30.09"   Gusts: NA
Location:  33.61°N, 92.06°W
Report Text: KLLQ 290353Z AUTO 19010KT 10SM CLR 16/04 A3009 RMK AO2 RAB04E19 SLP188 P0000 T01560044
Loading
Personal Weather Stations






























Interactive Weather Map New forecast layout! Learn more

10-Day Weather Forecast

Advertisements
Track Severe Weather on mobile